sensor_id;sensor_type;location;lat;lon;timestamp;pressure;altitude;pressure_sealevel;temperature;humidity
39999;BME280;25696;42.646;23.368;2022-08-01T00:00:38;94395.69;;;21.09;53.32
39999;BME280;25696;42.646;23.368;2022-08-01T00:03:04;94401.72;;;21.06;53.27
39999;BME280;25696;42.646;23.368;2022-08-01T00:05:30;94395.97;;;21.08;52.96
39999;BME280;25696;42.646;23.368;2022-08-01T00:07:55;94396.50;;;21.10;52.46
39999;BME280;25696;42.646;23.368;2022-08-01T00:10:21;94395.69;;;21.04;52.60
39999;BME280;25696;42.646;23.368;2022-08-01T00:12:46;94389.41;;;21.19;52.38
39999;BME280;25696;42.646;23.368;2022-08-01T00:15:15;94383.66;;;21.20;51.22
39999;BME280;25696;42.646;23.368;2022-08-01T00:17:42;94388.84;;;21.17;51.29
39999;BME280;25696;42.646;23.368;2022-08-01T00:20:14;94387.47;;;21.19;51.20
39999;BME280;25696;42.646;23.368;2022-08-01T00:22:39;94387.47;;;21.14;50.54
39999;BME280;25696;42.646;23.368;2022-08-01T00:25:05;94400.59;;;21.17;50.08
39999;BME280;25696;42.646;23.368;2022-08-01T00:27:31;94407.75;;;21.18;50.45
39999;BME280;25696;42.646;23.368;2022-08-01T00:29:57;94395.94;;;20.98;50.64
39999;BME280;25696;42.646;23.368;2022-08-01T00:32:23;94397.31;;;21.05;50.21
39999;BME280;25696;42.646;23.368;2022-08-01T00:34:49;94398.63;;;20.82;50.50
39999;BME280;25696;42.646;23.368;2022-08-01T00:37:14;94407.66;;;20.88;50.42
39999;BME280;25696;42.646;23.368;2022-08-01T00:39:40;94407.38;;;20.84;52.05
39999;BME280;25696;42.646;23.368;2022-08-01T00:42:07;94415.31;;;20.76;55.71
39999;BME280;25696;42.646;23.368;2022-08-01T00:44:33;94407.56;;;20.38;58.37
39999;BME280;25696;42.646;23.368;2022-08-01T00:46:59;94414.28;;;20.15;59.77
39999;BME280;25696;42.646;23.368;2022-08-01T00:49:25;94408.50;;;20.12;60.66
39999;BME280;25696;42.646;23.368;2022-08-01T00:51:50;94409.25;;;19.97;61.34
39999;BME280;25696;42.646;23.368;2022-08-01T00:54:16;94406.38;;;19.72;62.40
39999;BME280;25696;42.646;23.368;2022-08-01T00:56:41;94413.22;;;19.74;62.74
39999;BME280;25696;42.646;23.368;2022-08-01T00:59:09;94413.19;;;19.69;62.83
39999;BME280;25696;42.646;23.368;2022-08-01T01:01:34;94407.69;;;19.64;63.18
39999;BME280;25696;42.646;23.368;2022-08-01T01:04:00;94400.84;;;19.57;63.47
39999;BME280;25696;42.646;23.368;2022-08-01T01:15:03;94389.78;;;19.42;63.96
39999;BME280;25696;42.646;23.368;2022-08-01T01:17:37;94390.41;;;19.17;65.10
39999;BME280;25696;42.646;23.368;2022-08-01T01:20:06;94373.09;;;18.70;66.41
39999;BME280;25696;42.646;23.368;2022-08-01T01:31:19;94377.44;;;18.71;68.74
39999;BME280;25696;42.646;23.368;2022-08-01T01:33:48;94374.66;;;18.92;67.76
39999;BME280;25696;42.646;23.368;2022-08-01T01:36:16;94361.47;;;18.84;67.08
39999;BME280;25696;42.646;23.368;2022-08-01T01:38:45;94362.91;;;18.92;67.09
39999;BME280;25696;42.646;23.368;2022-08-01T01:41:11;94371.66;;;18.94;67.48
39999;BME280;25696;42.646;23.368;2022-08-01T01:43:39;94364.88;;;19.01;67.11
39999;BME280;25696;42.646;23.368;2022-08-01T01:46:06;94366.88;;;19.11;67.17
39999;BME280;25696;42.646;23.368;2022-08-01T01:48:33;94361.16;;;19.12;67.50
39999;BME280;25696;42.646;23.368;2022-08-01T01:51:00;94364.72;;;19.13;67.04
39999;BME280;25696;42.646;23.368;2022-08-01T01:53:28;94367.66;;;19.06;67.21
39999;BME280;25696;42.646;23.368;2022-08-01T01:55:55;94366.31;;;19.09;66.88
39999;BME280;25696;42.646;23.368;2022-08-01T01:58:22;94357.88;;;19.10;66.36
39999;BME280;25696;42.646;23.368;2022-08-01T02:00:51;94355.16;;;19.15;65.69
39999;BME280;25696;42.646;23.368;2022-08-01T02:03:18;94348.13;;;19.19;65.88
39999;BME280;25696;42.646;23.368;2022-08-01T02:05:44;94355.50;;;19.24;64.94
39999;BME280;25696;42.646;23.368;2022-08-01T02:08:11;94341.56;;;19.20;63.66
39999;BME280;25696;42.646;23.368;2022-08-01T02:10:40;94353.41;;;18.99;63.52
39999;BME280;25696;42.646;23.368;2022-08-01T02:13:06;94359.19;;;19.08;61.33
39999;BME280;25696;42.646;23.368;2022-08-01T02:15:34;94342.88;;;19.13;61.49
39999;BME280;25696;42.646;23.368;2022-08-01T02:18:03;94347.78;;;19.11;59.64
39999;BME280;25696;42.646;23.368;2022-08-01T02:20:34;94345.06;;;19.16;58.30
39999;BME280;25696;42.646;23.368;2022-08-01T02:23:07;94341.34;;;19.27;55.79
39999;BME280;25696;42.646;23.368;2022-08-01T02:25:40;94349.91;;;19.41;55.85
39999;BME280;25696;42.646;23.368;2022-08-01T02:28:10;94344.50;;;19.46;56.34
39999;BME280;25696;42.646;23.368;2022-08-01T02:30:41;94327.56;;;19.12;57.94
39999;BME280;25696;42.646;23.368;2022-08-01T02:33:20;94347.91;;;18.63;64.20
39999;BME280;25696;42.646;23.368;2022-08-01T02:35:50;94355.88;;;18.42;65.69
39999;BME280;25696;42.646;23.368;2022-08-01T02:38:18;94355.03;;;18.42;65.39
39999;BME280;25696;42.646;23.368;2022-08-01T02:40:47;94356.72;;;18.70;64.52
39999;BME280;25696;42.646;23.368;2022-08-01T02:43:18;94354.69;;;18.60;64.30
39999;BME280;25696;42.646;23.368;2022-08-01T02:45:49;94352.38;;;18.74;63.87
39999;BME280;25696;42.646;23.368;2022-08-01T02:48:18;94345.47;;;18.98;62.82
39999;BME280;25696;42.646;23.368;2022-08-01T02:50:47;94340.72;;;19.15;61.65
39999;BME280;25696;42.646;23.368;2022-08-01T02:53:14;94343.44;;;19.15;60.11
39999;BME280;25696;42.646;23.368;2022-08-01T02:55:44;94330.69;;;19.25;59.89
39999;BME280;25696;42.646;23.368;2022-08-01T02:58:23;94341.06;;;19.28;60.17
39999;BME280;25696;42.646;23.368;2022-08-01T03:00:51;94337.31;;;19.35;59.46
39999;BME280;25696;42.646;23.368;2022-08-01T03:03:19;94346.06;;;19.37;58.51
39999;BME280;25696;42.646;23.368;2022-08-01T03:05:45;94330.38;;;19.22;58.94
39999;BME280;25696;42.646;23.368;2022-08-01T03:08:15;94342.69;;;19.24;59.18
39999;BME280;25696;42.646;23.368;2022-08-01T03:10:46;94342.97;;;19.28;59.07
39999;BME280;25696;42.646;23.368;2022-08-01T03:13:13;94328.41;;;19.12;58.91
39999;BME280;25696;42.646;23.368;2022-08-01T03:15:41;94353.59;;;19.24;59.41
39999;BME280;25696;42.646;23.368;2022-08-01T03:18:09;94355.75;;;18.86;60.41
39999;BME280;25696;42.646;23.368;2022-08-01T03:20:35;94347.66;;;18.96;60.68
39999;BME280;25696;42.646;23.368;2022-08-01T03:23:04;94348.00;;;19.04;61.08
39999;BME280;25696;42.646;23.368;2022-08-01T03:25:31;94353.25;;;19.16;60.35
39999;BME280;25696;42.646;23.368;2022-08-01T03:27:59;94343.22;;;19.26;61.33
39999;BME280;25696;42.646;23.368;2022-08-01T03:30:27;94350.09;;;19.29;61.24
39999;BME280;25696;42.646;23.368;2022-08-01T03:32:53;94359.38;;;19.33;60.68
39999;BME280;25696;42.646;23.368;2022-08-01T03:35:21;94356.00;;;19.16;60.67
39999;BME280;25696;42.646;23.368;2022-08-01T03:37:50;94350.88;;;19.24;61.12
39999;BME280;25696;42.646;23.368;2022-08-01T03:40:40;94363.47;;;19.31;60.51
39999;BME280;25696;42.646;23.368;2022-08-01T03:43:15;94358.28;;;19.29;60.98
39999;BME280;25696;42.646;23.368;2022-08-01T03:45:46;94358.63;;;19.38;61.00
39999;BME280;25696;42.646;23.368;2022-08-01T03:48:16;94356.88;;;19.26;60.52
39999;BME280;25696;42.646;23.368;2022-08-01T03:50:46;94356.44;;;19.03;60.16
39999;BME280;25696;42.646;23.368;2022-08-01T03:53:13;94371.72;;;18.45;63.04
39999;BME280;25696;42.646;23.368;2022-08-01T03:55:41;94364.75;;;18.55;62.02
39999;BME280;25696;42.646;23.368;2022-08-01T03:58:08;94361.81;;;18.39;63.86
39999;BME280;25696;42.646;23.368;2022-08-01T04:00:36;94361.09;;;18.22;65.11
39999;BME280;25696;42.646;23.368;2022-08-01T04:03:06;94364.44;;;18.29;64.71
39999;BME280;25696;42.646;23.368;2022-08-01T04:05:32;94364.56;;;18.18;65.28
39999;BME280;25696;42.646;23.368;2022-08-01T04:07:58;94356.56;;;18.06;65.70
39999;BME280;25696;42.646;23.368;2022-08-01T04:10:25;94372.59;;;18.03;65.55
39999;BME280;25696;42.646;23.368;2022-08-01T04:12:51;94359.72;;;17.98;64.95
39999;BME280;25696;42.646;23.368;2022-08-01T04:15:16;94371.38;;;18.15;63.23
39999;BME280;25696;42.646;23.368;2022-08-01T04:17:42;94373.81;;;18.38;61.93
39999;BME280;25696;42.646;23.368;2022-08-01T04:20:08;94353.63;;;18.61;61.11
39999;BME280;25696;42.646;23.368;2022-08-01T04:22:34;94367.19;;;18.83;60.60
39999;BME280;25696;42.646;23.368;2022-08-01T04:25:05;94356.63;;;18.91;60.41
39999;BME280;25696;42.646;23.368;2022-08-01T04:27:38;94362.22;;;19.11;58.39
39999;BME280;25696;42.646;23.368;2022-08-01T04:30:06;94368.50;;;19.12;58.55
39999;BME280;25696;42.646;23.368;2022-08-01T04:32:35;94362.97;;;19.34;57.43
39999;BME280;25696;42.646;23.368;2022-08-01T04:35:05;94367.97;;;19.47;56.80
39999;BME280;25696;42.646;23.368;2022-08-01T04:37:32;94370.63;;;19.78;55.40
39999;BME280;25696;42.646;23.368;2022-08-01T04:39:59;94371.31;;;20.11;54.21
39999;BME280;25696;42.646;23.368;2022-08-01T04:42:26;94362.09;;;20.27;53.91
39999;BME280;25696;42.646;23.368;2022-08-01T04:44:52;94357.28;;;20.64;54.11
39999;BME280;25696;42.646;23.368;2022-08-01T04:47:18;94349.69;;;21.11;53.46
39999;BME280;25696;42.646;23.368;2022-08-01T04:49:45;94357.16;;;22.15;51.75
39999;BME280;25696;42.646;23.368;2022-08-01T04:52:11;94356.00;;;23.81;47.91
39999;BME280;25696;42.646;23.368;2022-08-01T04:54:36;94357.78;;;25.41;42.99
39999;BME280;25696;42.646;23.368;2022-08-01T04:57:05;94365.41;;;26.90;39.73
39999;BME280;25696;42.646;23.368;2022-08-01T04:59:32;94359.84;;;28.06;36.83
39999;BME280;25696;42.646;23.368;2022-08-01T05:02:12;94361.00;;;28.92;35.34
39999;BME280;25696;42.646;23.368;2022-08-01T05:04:38;94331.19;;;29.49;34.40
39999;BME280;25696;42.646;23.368;2022-08-01T05:07:05;94344.47;;;30.32;33.51
39999;BME280;25696;42.646;23.368;2022-08-01T05:09:31;94348.66;;;29.83;33.79
39999;BME280;25696;42.646;23.368;2022-08-01T05:11:59;94347.41;;;30.27;33.39
39999;BME280;25696;42.646;23.368;2022-08-01T05:14:25;94352.53;;;30.54;31.87
39999;BME280;25696;42.646;23.368;2022-08-01T05:16:51;94349.97;;;30.87;30.74
39999;BME280;25696;42.646;23.368;2022-08-01T05:19:17;94351.50;;;30.67;31.35
39999;BME280;25696;42.646;23.368;2022-08-01T05:21:43;94338.03;;;30.86;30.39
39999;BME280;25696;42.646;23.368;2022-08-01T05:24:08;94352.88;;;31.40;29.93
39999;BME280;25696;42.646;23.368;2022-08-01T05:26:34;94337.88;;;31.33;29.79
39999;BME280;25696;42.646;23.368;2022-08-01T05:29:00;94349.00;;;31.33;29.71
39999;BME280;25696;42.646;23.368;2022-08-01T05:31:25;94334.19;;;31.00;30.71
39999;BME280;25696;42.646;23.368;2022-08-01T05:33:51;94343.06;;;31.14;30.49
39999;BME280;25696;42.646;23.368;2022-08-01T05:36:16;94343.09;;;31.76;29.33
39999;BME280;25696;42.646;23.368;2022-08-01T05:38:42;94348.13;;;31.61;29.12
39999;BME280;25696;42.646;23.368;2022-08-01T05:41:08;94337.22;;;31.89;28.76
39999;BME280;25696;42.646;23.368;2022-08-01T05:43:33;94344.56;;;31.94;27.96
39999;BME280;25696;42.646;23.368;2022-08-01T05:45:58;94326.72;;;31.74;28.40
39999;BME280;25696;42.646;23.368;2022-08-01T05:48:24;94348.59;;;32.17;28.70
39999;BME280;25696;42.646;23.368;2022-08-01T05:50:50;94341.63;;;32.23;28.21
39999;BME280;25696;42.646;23.368;2022-08-01T05:53:15;94357.66;;;32.14;28.46
39999;BME280;25696;42.646;23.368;2022-08-01T05:55:41;94352.97;;;31.85;28.44
39999;BME280;25696;42.646;23.368;2022-08-01T05:58:06;94351.22;;;32.01;28.46
39999;BME280;25696;42.646;23.368;2022-08-01T06:00:32;94352.97;;;32.06;27.67
39999;BME280;25696;42.646;23.368;2022-08-01T06:02:57;94345.59;;;31.48;27.89
39999;BME280;25696;42.646;23.368;2022-08-01T06:05:23;94338.81;;;31.37;28.58
39999;BME280;25696;42.646;23.368;2022-08-01T06:07:48;94353.97;;;31.48;28.67
39999;BME280;25696;42.646;23.368;2022-08-01T06:10:14;94344.97;;;32.16;28.19
39999;BME280;25696;42.646;23.368;2022-08-01T06:12:39;94347.72;;;32.04;28.26
39999;BME280;25696;42.646;23.368;2022-08-01T06:15:06;94355.47;;;33.00;26.89
39999;BME280;25696;42.646;23.368;2022-08-01T06:17:32;94351.16;;;33.03;26.29
39999;BME280;25696;42.646;23.368;2022-08-01T06:19:57;94352.41;;;32.69;26.20
39999;BME280;25696;42.646;23.368;2022-08-01T06:22:23;94355.19;;;32.93;26.03
39999;BME280;25696;42.646;23.368;2022-08-01T06:24:49;94347.75;;;32.97;25.11
39999;BME280;25696;42.646;23.368;2022-08-01T06:27:14;94361.25;;;32.59;25.56
39999;BME280;25696;42.646;23.368;2022-08-01T06:29:40;94357.63;;;32.46;25.87
39999;BME280;25696;42.646;23.368;2022-08-01T06:32:05;94348.34;;;32.55;25.72
39999;BME280;25696;42.646;23.368;2022-08-01T06:34:32;94344.13;;;31.83;26.47
39999;BME280;25696;42.646;23.368;2022-08-01T06:36:57;94346.22;;;31.95;26.07
39999;BME280;25696;42.646;23.368;2022-08-01T06:39:23;94350.66;;;32.08;26.20
39999;BME280;25696;42.646;23.368;2022-08-01T06:41:48;94345.47;;;31.65;26.56
39999;BME280;25696;42.646;23.368;2022-08-01T06:44:14;94343.16;;;31.67;26.64
39999;BME280;25696;42.646;23.368;2022-08-01T06:46:39;94347.53;;;32.09;26.57
39999;BME280;25696;42.646;23.368;2022-08-01T06:49:05;94335.00;;;32.15;26.67
39999;BME280;25696;42.646;23.368;2022-08-01T06:51:30;94335.03;;;32.39;26.19
39999;BME280;25696;42.646;23.368;2022-08-01T06:53:56;94337.34;;;32.37;26.42
39999;BME280;25696;42.646;23.368;2022-08-01T06:56:22;94323.06;;;32.27;26.68
39999;BME280;25696;42.646;23.368;2022-08-01T06:58:50;94323.78;;;31.91;26.97
39999;BME280;25696;42.646;23.368;2022-08-01T07:01:16;94318.47;;;31.98;26.78
39999;BME280;25696;42.646;23.368;2022-08-01T07:03:41;94317.69;;;31.36;27.64
39999;BME280;25696;42.646;23.368;2022-08-01T07:06:07;94307.09;;;30.79;28.27
39999;BME280;25696;42.646;23.368;2022-08-01T07:08:32;94308.47;;;29.89;29.38
39999;BME280;25696;42.646;23.368;2022-08-01T07:10:58;94306.38;;;29.61;30.02
39999;BME280;25696;42.646;23.368;2022-08-01T07:13:26;94311.28;;;29.64;30.29
39999;BME280;25696;42.646;23.368;2022-08-01T07:15:52;94311.13;;;29.34;30.46
39999;BME280;25696;42.646;23.368;2022-08-01T07:18:18;94311.75;;;28.97;31.22
39999;BME280;25696;42.646;23.368;2022-08-01T07:20:46;94315.69;;;29.13;31.55
39999;BME280;25696;42.646;23.368;2022-08-01T07:23:12;94315.50;;;29.01;31.58
39999;BME280;25696;42.646;23.368;2022-08-01T07:25:38;94309.47;;;28.91;31.63
39999;BME280;25696;42.646;23.368;2022-08-01T07:28:04;94309.97;;;29.01;31.84
39999;BME280;25696;42.646;23.368;2022-08-01T07:30:29;94309.78;;;28.89;31.99
39999;BME280;25696;42.646;23.368;2022-08-01T07:32:55;94310.13;;;28.88;32.37
39999;BME280;25696;42.646;23.368;2022-08-01T07:35:21;94313.34;;;28.64;32.46
39999;BME280;25696;42.646;23.368;2022-08-01T07:37:46;94313.50;;;28.76;32.27
39999;BME280;25696;42.646;23.368;2022-08-01T07:40:12;94306.53;;;28.79;31.82
39999;BME280;25696;42.646;23.368;2022-08-01T07:42:38;94307.75;;;28.55;31.97
39999;BME280;25696;42.646;23.368;2022-08-01T07:45:04;94306.66;;;28.74;32.06
39999;BME280;25696;42.646;23.368;2022-08-01T07:47:29;94313.03;;;28.83;32.16
39999;BME280;25696;42.646;23.368;2022-08-01T07:50:03;94319.53;;;28.70;31.68
39999;BME280;25696;42.646;23.368;2022-08-01T07:52:29;94312.09;;;28.39;32.37
39999;BME280;25696;42.646;23.368;2022-08-01T07:54:56;94320.66;;;28.60;32.66
39999;BME280;25696;42.646;23.368;2022-08-01T07:57:22;94324.31;;;28.38;31.78
39999;BME280;25696;42.646;23.368;2022-08-01T07:59:49;94318.34;;;28.14;32.71
39999;BME280;25696;42.646;23.368;2022-08-01T08:02:14;94319.19;;;28.15;33.29
39999;BME280;25696;42.646;23.368;2022-08-01T08:04:40;94331.97;;;28.02;33.42
39999;BME280;25696;42.646;23.368;2022-08-01T08:07:06;94321.44;;;28.13;32.94
39999;BME280;25696;42.646;23.368;2022-08-01T08:09:32;94324.38;;;28.55;32.35
39999;BME280;25696;42.646;23.368;2022-08-01T08:11:57;94308.22;;;28.10;32.78
39999;BME280;25696;42.646;23.368;2022-08-01T08:14:23;94317.41;;;27.66;33.81
39999;BME280;25696;42.646;23.368;2022-08-01T08:16:49;94312.41;;;27.46;33.67
39999;BME280;25696;42.646;23.368;2022-08-01T08:19:15;94327.25;;;27.50;33.63
39999;BME280;25696;42.646;23.368;2022-08-01T08:21:41;94327.03;;;27.68;34.60
39999;BME280;25696;42.646;23.368;2022-08-01T08:24:08;94316.34;;;27.53;33.97
39999;BME280;25696;42.646;23.368;2022-08-01T08:26:51;94318.78;;;27.77;33.90
39999;BME280;25696;42.646;23.368;2022-08-01T08:29:18;94319.47;;;28.05;33.13
39999;BME280;25696;42.646;23.368;2022-08-01T08:31:44;94321.00;;;28.28;32.57
39999;BME280;25696;42.646;23.368;2022-08-01T08:34:10;94330.91;;;28.59;31.98
39999;BME280;25696;42.646;23.368;2022-08-01T08:36:36;94320.84;;;28.72;31.60
39999;BME280;25696;42.646;23.368;2022-08-01T08:39:02;94323.00;;;28.84;31.40
39999;BME280;25696;42.646;23.368;2022-08-01T08:41:35;94335.06;;;28.96;32.01
39999;BME280;25696;42.646;23.368;2022-08-01T08:44:02;94316.19;;;28.98;31.64
39999;BME280;25696;42.646;23.368;2022-08-01T08:46:28;94311.25;;;28.95;31.68
39999;BME280;25696;42.646;23.368;2022-08-01T08:48:59;94321.25;;;29.22;31.10
39999;BME280;25696;42.646;23.368;2022-08-01T08:51:26;94327.59;;;29.82;30.94
39999;BME280;25696;42.646;23.368;2022-08-01T08:53:54;94327.94;;;29.47;31.21
39999;BME280;25696;42.646;23.368;2022-08-01T08:56:21;94321.09;;;29.35;31.20
39999;BME280;25696;42.646;23.368;2022-08-01T08:58:48;94311.91;;;29.61;31.18
39999;BME280;25696;42.646;23.368;2022-08-01T09:01:15;94325.78;;;29.61;30.43
39999;BME280;25696;42.646;23.368;2022-08-01T09:03:43;94319.47;;;29.34;30.87
39999;BME280;25696;42.646;23.368;2022-08-01T09:06:09;94320.75;;;29.63;30.05
39999;BME280;25696;42.646;23.368;2022-08-01T09:08:35;94321.09;;;29.18;30.11
39999;BME280;25696;42.646;23.368;2022-08-01T09:11:01;94305.84;;;28.82;30.77
39999;BME280;25696;42.646;23.368;2022-08-01T09:13:26;94299.50;;;28.73;31.29
39999;BME280;25696;42.646;23.368;2022-08-01T09:15:53;94309.75;;;28.63;30.27
39999;BME280;25696;42.646;23.368;2022-08-01T09:18:38;94310.41;;;28.78;30.60
39999;BME280;25696;42.646;23.368;2022-08-01T09:21:17;94290.84;;;28.74;29.72
39999;BME280;25696;42.646;23.368;2022-08-01T09:23:48;94290.94;;;28.43;30.10
39999;BME280;25696;42.646;23.368;2022-08-01T09:26:32;94294.03;;;28.42;30.47
39999;BME280;25696;42.646;23.368;2022-08-01T09:28:58;94303.09;;;28.90;31.11
39999;BME280;25696;42.646;23.368;2022-08-01T09:31:27;94289.41;;;28.85;31.00
39999;BME280;25696;42.646;23.368;2022-08-01T09:33:58;94292.69;;;29.04;29.51
39999;BME280;25696;42.646;23.368;2022-08-01T09:36:25;94305.25;;;29.53;29.39
39999;BME280;25696;42.646;23.368;2022-08-01T09:38:53;94295.25;;;29.69;29.03
39999;BME280;25696;42.646;23.368;2022-08-01T09:41:30;94304.94;;;30.64;27.89
39999;BME280;25696;42.646;23.368;2022-08-01T09:43:58;94298.44;;;31.84;26.83
39999;BME280;25696;42.646;23.368;2022-08-01T09:46:24;94286.53;;;32.53;26.09
39999;BME280;25696;42.646;23.368;2022-08-01T09:49:03;94306.88;;;33.65;24.63
39999;BME280;25696;42.646;23.368;2022-08-01T09:51:34;94307.81;;;34.71;23.02
39999;BME280;25696;42.646;23.368;2022-08-01T09:54:02;94292.94;;;35.91;22.32
39999;BME280;25696;42.646;23.368;2022-08-01T09:56:39;94282.75;;;35.44;22.33
39999;BME280;25696;42.646;23.368;2022-08-01T09:59:05;94280.63;;;34.72;22.67
39999;BME280;25696;42.646;23.368;2022-08-01T10:01:49;94288.63;;;34.89;22.77
39999;BME280;25696;42.646;23.368;2022-08-01T10:04:20;94287.25;;;35.49;22.79
39999;BME280;25696;42.646;23.368;2022-08-01T10:06:48;94285.50;;;35.79;23.34
39999;BME280;25696;42.646;23.368;2022-08-01T10:09:31;94286.44;;;35.14;23.19
39999;BME280;25696;42.646;23.368;2022-08-01T10:11:58;94295.47;;;35.07;23.34
39999;BME280;25696;42.646;23.368;2022-08-01T10:14:25;94286.72;;;33.32;25.13
39999;BME280;25696;42.646;23.368;2022-08-01T10:16:52;94257.53;;;33.30;24.33
39999;BME280;25696;42.646;23.368;2022-08-01T10:19:21;94274.66;;;33.83;24.75
39999;BME280;25696;42.646;23.368;2022-08-01T10:21:47;94268.75;;;35.10;23.70
39999;BME280;25696;42.646;23.368;2022-08-01T10:24:16;94273.31;;;36.10;22.85
39999;BME280;25696;42.646;23.368;2022-08-01T10:26:43;94254.63;;;35.95;22.18
39999;BME280;25696;42.646;23.368;2022-08-01T10:29:10;94269.09;;;33.44;24.46
39999;BME280;25696;42.646;23.368;2022-08-01T10:31:37;94274.34;;;30.93;27.57
39999;BME280;25696;42.646;23.368;2022-08-01T10:34:04;94275.19;;;29.72;29.19
39999;BME280;25696;42.646;23.368;2022-08-01T10:36:31;94274.44;;;29.20;29.97
39999;BME280;25696;42.646;23.368;2022-08-01T10:38:58;94272.94;;;28.89;31.43
39999;BME280;25696;42.646;23.368;2022-08-01T10:41:25;94269.84;;;29.07;31.66
39999;BME280;25696;42.646;23.368;2022-08-01T10:43:51;94251.75;;;28.93;31.46
39999;BME280;25696;42.646;23.368;2022-08-01T10:46:19;94252.22;;;29.03;31.87
39999;BME280;25696;42.646;23.368;2022-08-01T10:48:51;94259.16;;;28.49;32.21
39999;BME280;25696;42.646;23.368;2022-08-01T10:51:19;94265.91;;;28.74;31.93
39999;BME280;25696;42.646;23.368;2022-08-01T10:53:55;94263.06;;;28.48;32.43
39999;BME280;25696;42.646;23.368;2022-08-01T10:56:23;94259.63;;;28.43;32.54
39999;BME280;25696;42.646;23.368;2022-08-01T10:58:49;94259.75;;;28.77;32.96
39999;BME280;25696;42.646;23.368;2022-08-01T11:01:15;94249.06;;;28.53;31.48
39999;BME280;25696;42.646;23.368;2022-08-01T11:03:42;94260.19;;;28.06;32.51
39999;BME280;25696;42.646;23.368;2022-08-01T11:06:20;94263.72;;;27.67;33.39
39999;BME280;25696;42.646;23.368;2022-08-01T11:08:54;94257.59;;;27.78;33.78
39999;BME280;25696;42.646;23.368;2022-08-01T11:11:22;94243.22;;;27.68;33.68
39999;BME280;25696;42.646;23.368;2022-08-01T11:14:05;94243.91;;;27.73;33.33
39999;BME280;25696;42.646;23.368;2022-08-01T11:16:39;94241.19;;;27.51;33.57
39999;BME280;25696;42.646;23.368;2022-08-01T11:19:06;94239.91;;;27.57;34.00
39999;BME280;25696;42.646;23.368;2022-08-01T11:27:25;94239.06;;;27.48;33.82
39999;BME280;25696;42.646;23.368;2022-08-01T11:32:55;94230.09;;;27.73;34.10
39999;BME280;25696;42.646;23.368;2022-08-01T11:35:24;94238.56;;;27.77;34.32
39999;BME280;25696;42.646;23.368;2022-08-01T11:38:25;94234.63;;;27.69;34.04
39999;BME280;25696;42.646;23.368;2022-08-01T11:41:16;94232.81;;;27.65;33.70
39999;BME280;25696;42.646;23.368;2022-08-01T11:46:57;94236.44;;;27.82;34.39
39999;BME280;25696;42.646;23.368;2022-08-01T11:52:24;94229.53;;;27.63;34.24
39999;BME280;25696;42.646;23.368;2022-08-01T11:57:22;94224.44;;;27.87;33.73
39999;BME280;25696;42.646;23.368;2022-08-01T11:59:56;94225.69;;;28.12;33.95
39999;BME280;25696;42.646;23.368;2022-08-01T12:02:27;94235.00;;;27.85;34.01
39999;BME280;25696;42.646;23.368;2022-08-01T12:04:56;94231.59;;;27.88;33.49
39999;BME280;25696;42.646;23.368;2022-08-01T12:07:24;94211.72;;;27.77;34.16
39999;BME280;25696;42.646;23.368;2022-08-01T12:12:32;94230.53;;;27.98;33.79
39999;BME280;25696;42.646;23.368;2022-08-01T12:15:03;94218.06;;;27.86;34.01
39999;BME280;25696;42.646;23.368;2022-08-01T12:17:32;94222.28;;;27.45;34.35
39999;BME280;25696;42.646;23.368;2022-08-01T12:19:58;94226.69;;;27.24;34.98
39999;BME280;25696;42.646;23.368;2022-08-01T12:22:24;94224.97;;;27.36;35.27
39999;BME280;25696;42.646;23.368;2022-08-01T12:24:52;94222.69;;;27.60;35.11
39999;BME280;25696;42.646;23.368;2022-08-01T12:27:28;94221.00;;;27.81;35.26
39999;BME280;25696;42.646;23.368;2022-08-01T12:29:57;94231.69;;;28.05;34.31
39999;BME280;25696;42.646;23.368;2022-08-01T12:34:54;94231.56;;;28.19;34.04
39999;BME280;25696;42.646;23.368;2022-08-01T12:37:20;94223.88;;;28.07;34.08
39999;BME280;25696;42.646;23.368;2022-08-01T12:39:46;94223.91;;;28.24;34.02
39999;BME280;25696;42.646;23.368;2022-08-01T12:42:12;94227.66;;;28.20;33.93
39999;BME280;25696;42.646;23.368;2022-08-01T12:44:39;94220.59;;;28.05;33.72
39999;BME280;25696;42.646;23.368;2022-08-01T12:47:06;94209.94;;;27.81;34.71
39999;BME280;25696;42.646;23.368;2022-08-01T12:49:33;94218.38;;;27.76;34.84
39999;BME280;25696;42.646;23.368;2022-08-01T12:51:58;94216.53;;;27.72;35.02
39999;BME280;25696;42.646;23.368;2022-08-01T12:54:24;94210.63;;;27.96;35.23
39999;BME280;25696;42.646;23.368;2022-08-01T12:56:51;94201.44;;;28.26;34.83
39999;BME280;25696;42.646;23.368;2022-08-01T13:01:48;94209.03;;;28.68;33.20
39999;BME280;25696;42.646;23.368;2022-08-01T13:04:14;94211.13;;;28.54;33.94
39999;BME280;25696;42.646;23.368;2022-08-01T13:06:39;94217.13;;;28.39;32.80
39999;BME280;25696;42.646;23.368;2022-08-01T13:09:06;94212.91;;;28.50;33.26
39999;BME280;25696;42.646;23.368;2022-08-01T13:11:32;94211.09;;;28.37;33.42
39999;BME280;25696;42.646;23.368;2022-08-01T13:13:58;94201.94;;;28.36;33.78
39999;BME280;25696;42.646;23.368;2022-08-01T13:16:25;94211.75;;;28.34;33.90
39999;BME280;25696;42.646;23.368;2022-08-01T13:18:52;94203.13;;;28.44;33.76
39999;BME280;25696;42.646;23.368;2022-08-01T13:26:51;94212.22;;;28.53;33.90
39999;BME280;25696;42.646;23.368;2022-08-01T13:29:38;94202.34;;;28.69;33.83
39999;BME280;25696;42.646;23.368;2022-08-01T13:32:19;94198.09;;;28.63;34.16
39999;BME280;25696;42.646;23.368;2022-08-01T13:34:44;94196.59;;;28.48;34.17
39999;BME280;25696;42.646;23.368;2022-08-01T13:37:10;94191.91;;;28.66;33.75
39999;BME280;25696;42.646;23.368;2022-08-01T13:39:35;94190.94;;;28.79;33.58
39999;BME280;25696;42.646;23.368;2022-08-01T13:42:16;94193.69;;;28.96;33.54